AirNav   Air Wisconsin Up To $57,000 Bonus
 
 1094 users online  

1TN1 Pela 15 Heliport
Columbia, Tennessee, USA

GOING TO COLUMBIA?


FAA INFORMATION EFFECTIVE 02 JANUARY 2020

Location

FAA Identifier: 1TN1
Lat/Long: 35-46-43.1000N 087-02-38.7000W
35-46.718333N 087-02.645000W
35.7786389,-87.0440833
(estimated)
Elevation: 974 ft. / 297 m (estimated)
From city: 10 miles N of COLUMBIA, TN
Time zone: UTC -6 (UTC -5 during Daylight Saving Time)
Zip code: 38482

Heliport Operations

Heliport use: Private use. Permission required prior to landing
Activation date: 07/2017
Control tower: no
ARTCC: MEMPHIS CENTER
FSS: JACKSON FLIGHT SERVICE STATION
Attendance: UNATNDD
Wind indicator: lighted
Segmented circle: no
Beacon: white (unlighted land airport)
Operates sunset to sunrise.

Heliport Communications

WX AWOS-3 at MRC (15 nm SW): 128.625 (931-379-0844)

Nearby radio navigation aids

VOR radial/distance  VOR name  Freq  Var
BNAr221/27.7NASHVILLE VORTAC114.1002W
SYIr295/32.2SHELBYVILLE VOR/DME113.5501W

 
NDB name  Hdg/Dist  Freq  Var  ID
DICKSON139/28.220301WDMZ -.. -- --..
WALTER HILL253/34.537102WFQW ..-. --.- .--

Heliport Services

Runway Information

Helipad H1

Dimensions: 40 x 40 ft. / 12 x 12 m
Surface: concrete, in excellent condition
Runway edge lights: PERI
Latitude: 35-46.718333N
Longitude: 087-02.645000W
Elevation: 974.0 ft.
Traffic pattern: leftleft

Heliport Ownership and Management from official FAA records

Ownership: Privately-owned
Owner: MAURY CO FIRE DEPT
2110 GRAVEL HILL RD
COLUMBIA, TN 38401
Phone 931 215 0812
Manager: TOM JARRATT
4084 FAIRVIEW RD
COLUMBIA, TN 38401
Phone 931 215 0812

Additional Remarks

A RED H IS PAINTED ON THE HELIPORT TO ASSIST MEDICAL PERSONNEL.
FOR CD CTC MEMPHIS ARTCC AT 901-368-8453.

Instrument Procedures

There are no published instrument procedures at 1TN1.

Some nearby airports with instrument procedures:

KMRC - Maury County Airport (15 nm SW)
KGHM - Centerville Municipal Airport (20 nm W)
KLUG - Ellington Airport (20 nm SE)
KJWN - John C Tune Airport (25 nm N)
KBNA - Nashville International Airport (27 nm NE)
 
Loc | Ops | Rwys | IFR | FBO | Links
Com | Nav | Svcs | Stats | Notes
Aerial photo
No photo
 
Airport distance calculator
Flying to Pela 15 Heliport? Find the distance to fly.

From to 1TN1

Sunrise and sunset
Times for 29-Jan-2020
 Local
(UTC-6)
 Zulu
(UTC)
Morning civil twilight06:2512:25
Sunrise06:5212:52
Sunset17:1123:11
Evening civil twilight17:3823:38

Current date and time
Zulu (UTC)  29-Jan-2020 12:37:52
Local (UTC-6)  29-Jan-2020 06:37:52
 
METAR
KMRC 
15nm SW 
291215Z AUTO 00000KT 7SM OVC055 04/04 A3002 RMK A01
KLUG 
20nm SE 
291215Z AUTO 00000KT 6SM BR BKN060 OVC075 03/02 A3004 RMK A01
KJWN 
25nm N 
291215Z AUTO 00000KT 5SM BR OVC047 03/02 A3005 RMK A01
KBNA 
27nm NE 
291153Z 03005KT 8SM BKN055 BKN070 OVC090 03/00 A3006 RMK AO2 SLP180 T00330000 10039 20033 55000
KM02 
28nm NW 
291215Z AUTO 07006KT 2SM BR OVC004 02/01 A3004 RMK A01
KMQY 
29nm NE 
291156Z AUTO 33004KT 10SM -RA SCT065 OVC090 03/01 A3007 RMK AO2 RAB56 SLP191 P0000 60000 T00280011 10033 20028 55000
TAF
NOTAMs
Click for the latest NOTAMs
NOTAMs are issued by the DoD/FAA and will open in a separate window not controlled by AirNav.

 

 
 

Would you like to see your business listed on this page?

 If your business provides an interesting product or service to pilots, flight crews, aircraft, or users of the Pela 15 Heliport, you should consider listing it here.  To start the listing process, click on the button below
 
Add a business
 

Other Pages about Pela 15 Heliport

Update a link
 
Copyright © AirNav, LLC. All rights reserved. Privacy Policy  Contact